sensor_id;sensor_type;location;lat;lon;timestamp;pressure;altitude;pressure_sealevel;temperature;humidity
51928;BME280;37953;52.806;18.270;2022-12-07T00:01:37;99988.19;;;4.04;100.00
51928;BME280;37953;52.806;18.270;2022-12-07T00:04:12;99988.19;;;4.04;100.00
51928;BME280;37953;52.806;18.270;2022-12-07T00:06:43;99989.91;;;4.03;100.00
51928;BME280;37953;52.806;18.270;2022-12-07T00:09:14;99990.75;;;4.04;100.00
51928;BME280;37953;52.806;18.270;2022-12-07T00:11:42;99991.63;;;4.03;100.00
51928;BME280;37953;52.806;18.270;2022-12-07T00:14:15;99991.66;;;4.04;100.00
51928;BME280;37953;52.806;18.270;2022-12-07T00:16:42;99984.72;;;4.02;100.00
51928;BME280;37953;52.806;18.270;2022-12-07T00:19:10;99987.28;;;4.02;100.00
51928;BME280;37953;52.806;18.270;2022-12-07T00:21:43;99983.00;;;4.01;100.00
51928;BME280;37953;52.806;18.270;2022-12-07T00:24:10;99983.00;;;4.01;100.00
51928;BME280;37953;52.806;18.270;2022-12-07T00:26:38;99980.47;;;4.02;100.00
51928;BME280;37953;52.806;18.270;2022-12-07T00:29:18;99980.47;;;4.02;100.00
51928;BME280;37953;52.806;18.270;2022-12-07T00:31:45;99973.53;;;4.00;100.00
51928;BME280;37953;52.806;18.270;2022-12-07T00:34:14;99976.09;;;4.00;100.00
51928;BME280;37953;52.806;18.270;2022-12-07T00:36:41;99976.09;;;3.98;100.00
51928;BME280;37953;52.806;18.270;2022-12-07T00:39:06;99972.59;;;3.95;100.00
51928;BME280;37953;52.806;18.270;2022-12-07T00:41:33;99975.19;;;3.96;100.00
51928;BME280;37953;52.806;18.270;2022-12-07T00:43:58;99970.88;;;3.95;100.00
51928;BME280;37953;52.806;18.270;2022-12-07T00:46:25;99973.44;;;3.95;100.00
51928;BME280;37953;52.806;18.270;2022-12-07T00:48:52;99975.13;;;3.93;100.00
51928;BME280;37953;52.806;18.270;2022-12-07T00:51:25;99973.41;;;3.92;100.00
51928;BME280;37953;52.806;18.270;2022-12-07T00:53:51;99973.41;;;3.92;100.00
51928;BME280;37953;52.806;18.270;2022-12-07T00:56:22;99970.81;;;3.92;100.00
51928;BME280;37953;52.806;18.270;2022-12-07T00:58:50;99963.94;;;3.91;100.00
51928;BME280;37953;52.806;18.270;2022-12-07T01:01:17;99960.50;;;3.91;100.00
51928;BME280;37953;52.806;18.270;2022-12-07T01:03:43;99957.91;;;3.89;100.00
51928;BME280;37953;52.806;18.270;2022-12-07T01:06:09;99964.78;;;3.90;100.00
51928;BME280;37953;52.806;18.270;2022-12-07T01:08:39;99953.66;;;3.90;100.00
51928;BME280;37953;52.806;18.270;2022-12-07T01:11:07;99955.31;;;3.89;100.00
51928;BME280;37953;52.806;18.270;2022-12-07T01:13:36;99956.22;;;3.90;100.00
51928;BME280;37953;52.806;18.270;2022-12-07T01:16:05;99946.72;;;3.87;100.00
51928;BME280;37953;52.806;18.270;2022-12-07T01:18:36;99945.84;;;3.86;100.00
51928;BME280;37953;52.806;18.270;2022-12-07T01:21:12;99944.09;;;3.84;100.00
51928;BME280;37953;52.806;18.270;2022-12-07T01:23:39;99937.19;;;3.81;100.00
51928;BME280;37953;52.806;18.270;2022-12-07T01:26:15;99940.69;;;3.85;100.00
51928;BME280;37953;52.806;18.270;2022-12-07T01:28:43;99940.66;;;3.83;100.00
51928;BME280;37953;52.806;18.270;2022-12-07T01:31:15;99941.53;;;3.84;100.00
51928;BME280;37953;52.806;18.270;2022-12-07T01:33:48;99937.28;;;3.86;100.00
51928;BME280;37953;52.806;18.270;2022-12-07T01:36:20;99938.09;;;3.85;100.00
51928;BME280;37953;52.806;18.270;2022-12-07T01:38:48;99930.44;;;3.86;100.00
51928;BME280;37953;52.806;18.270;2022-12-07T01:41:21;99931.34;;;3.88;100.00
51928;BME280;37953;52.806;18.270;2022-12-07T01:44:15;99921.13;;;3.92;100.00
51928;BME280;37953;52.806;18.270;2022-12-07T01:46:56;99923.66;;;3.90;100.00
51928;BME280;37953;52.806;18.270;2022-12-07T01:49:30;99920.25;;;3.90;100.00
51928;BME280;37953;52.806;18.270;2022-12-07T01:52:17;99915.09;;;3.90;100.00
51928;BME280;37953;52.806;18.270;2022-12-07T01:54:44;99919.34;;;3.89;100.00
51928;BME280;37953;52.806;18.270;2022-12-07T01:57:14;99913.34;;;3.88;100.00
51928;BME280;37953;52.806;18.270;2022-12-07T01:59:42;99913.31;;;3.87;100.00
51928;BME280;37953;52.806;18.270;2022-12-07T02:02:34;99907.31;;;3.86;100.00
51928;BME280;37953;52.806;18.270;2022-12-07T02:05:04;99906.47;;;3.86;100.00
51928;BME280;37953;52.806;18.270;2022-12-07T02:07:32;99906.41;;;3.84;100.00
51928;BME280;37953;52.806;18.270;2022-12-07T02:10:16;99903.88;;;3.86;100.00
51928;BME280;37953;52.806;18.270;2022-12-07T02:12:50;99896.13;;;3.84;100.00
51928;BME280;37953;52.806;18.270;2022-12-07T02:15:18;99893.53;;;3.83;100.00
51928;BME280;37953;52.806;18.270;2022-12-07T02:18:09;99899.59;;;3.86;100.00
51928;BME280;37953;52.806;18.270;2022-12-07T02:20:54;99897.91;;;3.87;100.00
51928;BME280;37953;52.806;18.270;2022-12-07T02:23:54;99892.84;;;3.90;100.00
51928;BME280;37953;52.806;18.270;2022-12-07T02:29:27;99891.09;;;3.89;100.00
51928;BME280;37953;52.806;18.270;2022-12-07T02:32:06;99887.63;;;3.87;100.00
51928;BME280;37953;52.806;18.270;2022-12-07T02:35:01;99877.41;;;3.90;100.00
51928;BME280;37953;52.806;18.270;2022-12-07T02:37:51;99878.31;;;3.92;100.00
51928;BME280;37953;52.806;18.270;2022-12-07T02:41:27;99880.06;;;3.95;100.00
51928;BME280;37953;52.806;18.270;2022-12-07T02:43:39;99884.34;;;3.94;100.00
51928;BME280;37953;52.806;18.270;2022-12-07T02:46:17;99883.50;;;3.95;100.00
51928;BME280;37953;52.806;18.270;2022-12-07T02:48:46;99880.06;;;3.95;100.00
51928;BME280;37953;52.806;18.270;2022-12-07T02:51:13;99883.59;;;3.98;100.00
51928;BME280;37953;52.806;18.270;2022-12-07T02:53:41;99893.00;;;3.99;100.00
51928;BME280;37953;52.806;18.270;2022-12-07T02:59:29;99881.91;;;4.02;100.00
51928;BME280;37953;52.806;18.270;2022-12-07T03:07:54;99876.00;;;4.06;100.00
51928;BME280;37953;52.806;18.270;2022-12-07T03:15:51;99868.38;;;4.09;100.00
51928;BME280;37953;52.806;18.270;2022-12-07T03:18:24;99872.56;;;4.05;100.00
51928;BME280;37953;52.806;18.270;2022-12-07T03:21:00;99870.00;;;4.05;100.00
51928;BME280;37953;52.806;18.270;2022-12-07T03:23:29;99864.88;;;4.05;100.00
51928;BME280;37953;52.806;18.270;2022-12-07T03:26:04;99874.31;;;4.06;100.00
51928;BME280;37953;52.806;18.270;2022-12-07T03:28:35;99869.19;;;4.06;100.00
51928;BME280;37953;52.806;18.270;2022-12-07T03:33:40;99861.50;;;4.10;100.00
51928;BME280;37953;52.806;18.270;2022-12-07T03:39:45;99863.31;;;4.14;100.00
51928;BME280;37953;52.806;18.270;2022-12-07T03:42:13;99861.50;;;4.10;100.00
51928;BME280;37953;52.806;18.270;2022-12-07T03:44:40;99857.22;;;4.10;100.00
51928;BME280;37953;52.806;18.270;2022-12-07T03:47:21;99855.56;;;4.12;100.00
51928;BME280;37953;52.806;18.270;2022-12-07T03:50:06;99847.03;;;4.13;100.00
51928;BME280;37953;52.806;18.270;2022-12-07T03:53:04;99854.75;;;4.15;100.00
51928;BME280;37953;52.806;18.270;2022-12-07T03:55:34;99848.75;;;4.14;100.00
51928;BME280;37953;52.806;18.270;2022-12-07T03:58:07;99852.16;;;4.13;100.00
51928;BME280;37953;52.806;18.270;2022-12-07T04:00:34;99850.47;;;4.14;100.00
51928;BME280;37953;52.806;18.270;2022-12-07T04:03:01;99855.56;;;4.12;100.00
51928;BME280;37953;52.806;18.270;2022-12-07T04:05:27;99849.53;;;4.10;100.00
51928;BME280;37953;52.806;18.270;2022-12-07T04:07:53;99859.81;;;4.10;100.00
51928;BME280;37953;52.806;18.270;2022-12-07T04:10:20;99852.09;;;4.08;100.00
51928;BME280;37953;52.806;18.270;2022-12-07T04:12:46;99858.09;;;4.09;100.00
51928;BME280;37953;52.806;18.270;2022-12-07T04:15:12;99854.66;;;4.08;100.00
51928;BME280;37953;52.806;18.270;2022-12-07T04:20:11;99854.63;;;4.07;100.00
51928;BME280;37953;52.806;18.270;2022-12-07T04:22:38;99852.00;;;4.05;100.00
51928;BME280;37953;52.806;18.270;2022-12-07T04:25:04;99855.44;;;4.06;100.00
51928;BME280;37953;52.806;18.270;2022-12-07T04:27:31;99857.19;;;4.07;100.00
51928;BME280;37953;52.806;18.270;2022-12-07T04:29:57;99859.72;;;4.05;100.00
51928;BME280;37953;52.806;18.270;2022-12-07T04:32:23;99855.44;;;4.04;100.00
51928;BME280;37953;52.806;18.270;2022-12-07T04:34:49;99851.13;;;4.03;100.00
51928;BME280;37953;52.806;18.270;2022-12-07T04:37:16;99858.00;;;4.04;100.00
51928;BME280;37953;52.806;18.270;2022-12-07T04:39:43;99849.31;;;3.99;100.00
51928;BME280;37953;52.806;18.270;2022-12-07T04:42:15;99841.56;;;3.98;100.00
51928;BME280;37953;52.806;18.270;2022-12-07T04:44:41;99847.53;;;3.95;100.00
51928;BME280;37953;52.806;18.270;2022-12-07T04:47:07;99844.94;;;3.94;100.00
51928;BME280;37953;52.806;18.270;2022-12-07T04:49:33;99847.47;;;3.92;100.00
51928;BME280;37953;52.806;18.270;2022-12-07T04:51:59;99838.84;;;3.88;100.00
51928;BME280;37953;52.806;18.270;2022-12-07T04:54:25;99842.22;;;3.86;100.00
51928;BME280;37953;52.806;18.270;2022-12-07T04:56:51;99841.31;;;3.84;100.00
51928;BME280;37953;52.806;18.270;2022-12-07T04:59:17;99837.84;;;3.82;100.00
51928;BME280;37953;52.806;18.270;2022-12-07T05:01:43;99839.53;;;3.80;100.00
51928;BME280;37953;52.806;18.270;2022-12-07T05:04:10;99829.19;;;3.77;100.00
51928;BME280;37953;52.806;18.270;2022-12-07T05:06:36;99835.19;;;3.77;100.00
51928;BME280;37953;52.806;18.270;2022-12-07T05:09:02;99824.84;;;3.74;100.00
51928;BME280;37953;52.806;18.270;2022-12-07T05:11:29;99828.22;;;3.72;100.00
51928;BME280;37953;52.806;18.270;2022-12-07T05:14:27;99833.31;;;3.69;100.00
51928;BME280;37953;52.806;18.270;2022-12-07T05:16:53;99828.13;;;3.67;100.00
51928;BME280;37953;52.806;18.270;2022-12-07T05:19:19;99821.28;;;3.67;100.00
51928;BME280;37953;52.806;18.270;2022-12-07T05:21:48;99827.28;;;3.66;100.00
51928;BME280;37953;52.806;18.270;2022-12-07T05:24:16;99825.53;;;3.65;100.00
51928;BME280;37953;52.806;18.270;2022-12-07T05:26:43;99826.34;;;3.63;100.00
51928;BME280;37953;52.806;18.270;2022-12-07T05:29:16;99828.09;;;3.65;100.00
51928;BME280;37953;52.806;18.270;2022-12-07T05:31:43;99828.09;;;3.65;100.00
51928;BME280;37953;52.806;18.270;2022-12-07T05:34:09;99829.84;;;3.66;100.00
51928;BME280;37953;52.806;18.270;2022-12-07T05:36:36;99828.19;;;3.70;100.00
51928;BME280;37953;52.806;18.270;2022-12-07T05:39:02;99829.06;;;3.71;100.00
51928;BME280;37953;52.806;18.270;2022-12-07T05:41:28;99829.06;;;3.71;100.00
51928;BME280;37953;52.806;18.270;2022-12-07T05:44:13;99831.66;;;3.71;100.00
51928;BME280;37953;52.806;18.270;2022-12-07T05:46:39;99835.03;;;3.70;100.00
51928;BME280;37953;52.806;18.270;2022-12-07T05:49:05;99823.81;;;3.66;100.00
51928;BME280;37953;52.806;18.270;2022-12-07T05:51:31;99828.06;;;3.64;100.00
51928;BME280;37953;52.806;18.270;2022-12-07T05:53:57;99834.91;;;3.63;100.00
51928;BME280;37953;52.806;18.270;2022-12-07T05:56:23;99829.72;;;3.62;100.00
51928;BME280;37953;52.806;18.270;2022-12-07T05:58:49;99824.59;;;3.60;100.00
51928;BME280;37953;52.806;18.270;2022-12-07T06:01:34;99827.97;;;3.59;100.00
51928;BME280;37953;52.806;18.270;2022-12-07T06:04:00;99823.69;;;3.58;100.00
51928;BME280;37953;52.806;18.270;2022-12-07T06:06:26;99826.22;;;3.57;100.00
51928;BME280;37953;52.806;18.270;2022-12-07T06:08:52;99825.34;;;3.56;100.00
51928;BME280;37953;52.806;18.270;2022-12-07T06:11:18;99824.41;;;3.53;100.00
51928;BME280;37953;52.806;18.270;2022-12-07T06:14:02;99829.56;;;3.53;100.00
51928;BME280;37953;52.806;18.270;2022-12-07T06:16:28;99831.25;;;3.52;100.00
51928;BME280;37953;52.806;18.270;2022-12-07T06:19:01;99829.56;;;3.53;100.00
51928;BME280;37953;52.806;18.270;2022-12-07T06:21:27;99824.38;;;3.50;100.00
51928;BME280;37953;52.806;18.270;2022-12-07T06:23:53;99832.03;;;3.48;100.00
51928;BME280;37953;52.806;18.270;2022-12-07T06:26:20;99810.28;;;3.31;100.00
51928;BME280;37953;52.806;18.270;2022-12-07T06:28:46;99814.66;;;3.36;100.00
51928;BME280;37953;52.806;18.270;2022-12-07T06:31:13;99831.00;;;3.40;100.00
51928;BME280;37953;52.806;18.270;2022-12-07T06:33:40;99838.75;;;3.41;100.00
51928;BME280;37953;52.806;18.270;2022-12-07T06:36:07;99833.53;;;3.38;100.00
51928;BME280;37953;52.806;18.270;2022-12-07T06:38:34;99833.53;;;3.38;100.00
51928;BME280;37953;52.806;18.270;2022-12-07T06:41:00;99816.94;;;3.22;100.00
51928;BME280;37953;52.806;18.270;2022-12-07T06:43:26;99836.84;;;3.34;100.00
51928;BME280;37953;52.806;18.270;2022-12-07T06:45:53;99812.72;;;3.24;100.00
51928;BME280;37953;52.806;18.270;2022-12-07T06:48:19;99837.78;;;3.38;100.00
51928;BME280;37953;52.806;18.270;2022-12-07T06:50:46;99825.69;;;3.32;100.00
51928;BME280;37953;52.806;18.270;2022-12-07T06:53:12;99826.53;;;3.31;100.00
51928;BME280;37953;52.806;18.270;2022-12-07T06:55:39;99834.38;;;3.37;100.00
51928;BME280;37953;52.806;18.270;2022-12-07T06:58:05;99829.13;;;3.33;100.00
51928;BME280;37953;52.806;18.270;2022-12-07T07:00:31;99832.63;;;3.36;100.00
51928;BME280;37953;52.806;18.270;2022-12-07T07:02:57;99831.75;;;3.36;100.00
51928;BME280;37953;52.806;18.270;2022-12-07T07:05:26;99836.09;;;3.37;100.00
51928;BME280;37953;52.806;18.270;2022-12-07T07:07:52;99834.41;;;3.39;100.00
51928;BME280;37953;52.806;18.270;2022-12-07T07:10:18;99825.81;;;3.38;100.00
51928;BME280;37953;52.806;18.270;2022-12-07T07:12:45;99828.38;;;3.38;100.00
51928;BME280;37953;52.806;18.270;2022-12-07T07:15:11;99826.72;;;3.40;100.00
51928;BME280;37953;52.806;18.270;2022-12-07T07:17:37;99815.50;;;3.35;100.00
51928;BME280;37953;52.806;18.270;2022-12-07T07:48:45;99833.66;;;3.44;100.00
51928;BME280;37953;52.806;18.270;2022-12-07T07:51:12;99822.47;;;3.42;100.00
51928;BME280;37953;52.806;18.270;2022-12-07T07:53:38;99825.94;;;3.44;100.00
51928;BME280;37953;52.806;18.270;2022-12-07T07:56:07;99828.56;;;3.46;100.00
51928;BME280;37953;52.806;18.270;2022-12-07T07:58:33;99824.28;;;3.46;100.00
51928;BME280;37953;52.806;18.270;2022-12-07T08:01:06;99828.59;;;3.49;100.00
51928;BME280;37953;52.806;18.270;2022-12-07T08:03:33;99816.56;;;3.46;100.00
51928;BME280;37953;52.806;18.270;2022-12-07T08:05:59;99820.91;;;3.49;100.00
51928;BME280;37953;52.806;18.270;2022-12-07T08:08:25;99817.56;;;3.52;100.00
51928;BME280;37953;52.806;18.270;2022-12-07T08:10:51;99817.56;;;3.52;100.00
51928;BME280;37953;52.806;18.270;2022-12-07T08:13:17;99820.13;;;3.53;100.00
51928;BME280;37953;52.806;18.270;2022-12-07T08:15:45;99822.69;;;3.53;100.00
51928;BME280;37953;52.806;18.270;2022-12-07T08:18:13;99817.59;;;3.55;100.00
51928;BME280;37953;52.806;18.270;2022-12-07T08:20:46;99816.78;;;3.56;100.00
51928;BME280;37953;52.806;18.270;2022-12-07T08:23:12;99808.22;;;3.57;100.00
51928;BME280;37953;52.806;18.270;2022-12-07T08:25:38;99815.13;;;3.59;100.00
51928;BME280;37953;52.806;18.270;2022-12-07T08:28:05;99812.59;;;3.61;100.00
51928;BME280;37953;52.806;18.270;2022-12-07T08:30:31;99808.31;;;3.61;100.00
51928;BME280;37953;52.806;18.270;2022-12-07T08:32:57;99811.78;;;3.63;100.00
51928;BME280;37953;52.806;18.270;2022-12-07T08:35:24;99810.09;;;3.64;100.00
51928;BME280;37953;52.806;18.270;2022-12-07T08:37:50;99817.00;;;3.66;100.00
51928;BME280;37953;52.806;18.270;2022-12-07T08:40:16;99819.59;;;3.68;100.00
51928;BME280;37953;52.806;18.270;2022-12-07T08:42:49;99819.66;;;3.71;100.00
51928;BME280;37953;52.806;18.270;2022-12-07T08:45:15;99811.09;;;3.71;100.00
51928;BME280;37953;52.806;18.270;2022-12-07T08:50:31;99806.03;;;3.75;100.00
51928;BME280;37953;52.806;18.270;2022-12-07T08:53:02;99808.66;;;3.77;100.00
51928;BME280;37953;52.806;18.270;2022-12-07T08:55:30;99815.47;;;3.76;100.00
51928;BME280;37953;52.806;18.270;2022-12-07T08:57:58;99810.38;;;3.78;100.00
51928;BME280;37953;52.806;18.270;2022-12-07T09:00:25;99804.38;;;3.79;100.00
51928;BME280;37953;52.806;18.270;2022-12-07T09:02:53;99807.84;;;3.79;100.00
51928;BME280;37953;52.806;18.270;2022-12-07T09:05:20;99801.84;;;3.80;100.00
51928;BME280;37953;52.806;18.270;2022-12-07T09:07:49;99801.03;;;3.81;100.00
51928;BME280;37953;52.806;18.270;2022-12-07T09:10:23;99791.66;;;3.83;100.00
51928;BME280;37953;52.806;18.270;2022-12-07T09:12:50;99790.75;;;3.83;100.00
51928;BME280;37953;52.806;18.270;2022-12-07T09:15:16;99794.22;;;3.83;100.00
51928;BME280;37953;52.806;18.270;2022-12-07T09:17:42;99781.38;;;3.83;100.00
51928;BME280;37953;52.806;18.270;2022-12-07T09:20:08;99780.50;;;3.84;100.00
51928;BME280;37953;52.806;18.270;2022-12-07T09:22:38;99788.28;;;3.87;100.00
51928;BME280;37953;52.806;18.270;2022-12-07T09:25:04;99781.44;;;3.88;100.00
51928;BME280;37953;52.806;18.270;2022-12-07T09:27:31;99775.44;;;3.87;100.00
51928;BME280;37953;52.806;18.270;2022-12-07T09:29:57;99773.75;;;3.88;100.00
51928;BME280;37953;52.806;18.270;2022-12-07T09:32:29;99769.50;;;3.90;100.00
51928;BME280;37953;52.806;18.270;2022-12-07T09:35:13;99762.59;;;3.89;100.00
51928;BME280;37953;52.806;18.270;2022-12-07T09:37:45;99769.50;;;3.90;100.00
51928;BME280;37953;52.806;18.270;2022-12-07T09:40:31;99763.50;;;3.90;100.00
51928;BME280;37953;52.806;18.270;2022-12-07T09:43:25;99766.06;;;3.91;100.00
51928;BME280;37953;52.806;18.270;2022-12-07T09:45:54;99754.06;;;3.90;100.00
51928;BME280;37953;52.806;18.270;2022-12-07T09:48:37;99754.13;;;3.92;100.00
51928;BME280;37953;52.806;18.270;2022-12-07T09:51:23;99746.41;;;3.93;100.00
51928;BME280;37953;52.806;18.270;2022-12-07T09:53:54;99737.81;;;3.91;100.00
51928;BME280;37953;52.806;18.270;2022-12-07T09:56:22;99748.13;;;3.93;100.00
51928;BME280;37953;52.806;18.270;2022-12-07T09:58:51;99737.81;;;3.91;100.00
51928;BME280;37953;52.806;18.270;2022-12-07T10:01:21;99734.44;;;3.94;100.00
51928;BME280;37953;52.806;18.270;2022-12-07T10:03:54;99737.88;;;3.94;100.00
51928;BME280;37953;52.806;18.270;2022-12-07T10:06:23;99730.16;;;3.94;100.00
51928;BME280;37953;52.806;18.270;2022-12-07T10:08:49;99735.31;;;3.94;100.00
51928;BME280;37953;52.806;18.270;2022-12-07T10:11:15;99725.03;;;3.94;100.00
51928;BME280;37953;52.806;18.270;2022-12-07T10:13:47;99725.03;;;3.94;100.00
51928;BME280;37953;52.806;18.270;2022-12-07T10:18:50;99715.63;;;3.95;100.00
51928;BME280;37953;52.806;18.270;2022-12-07T10:21:18;99719.91;;;3.94;100.00
51928;BME280;37953;52.806;18.270;2022-12-07T10:24:14;99715.66;;;3.96;100.00
51928;BME280;37953;52.806;18.270;2022-12-07T10:32:33;99707.03;;;3.96;100.00
51928;BME280;37953;52.806;18.270;2022-12-07T10:37:44;99704.47;;;3.94;100.00
51928;BME280;37953;52.806;18.270;2022-12-07T10:40:33;99694.19;;;3.96;100.00
51928;BME280;37953;52.806;18.270;2022-12-07T10:43:15;99688.19;;;3.94;100.00
51928;BME280;37953;52.806;18.270;2022-12-07T11:00:00;99672.84;;;3.98;100.00
51928;BME280;37953;52.806;18.270;2022-12-07T11:05:40;99660.00;;;3.98;100.00
51928;BME280;37953;52.806;18.270;2022-12-07T11:08:43;99668.59;;;4.00;100.00
51928;BME280;37953;52.806;18.270;2022-12-07T11:20:34;99640.34;;;4.00;100.00
51928;BME280;37953;52.806;18.270;2022-12-07T11:31:54;99634.31;;;4.00;100.00
51928;BME280;37953;52.806;18.270;2022-12-07T11:34:41;99625.75;;;3.99;100.00
51928;BME280;37953;52.806;18.270;2022-12-07T11:37:18;99632.59;;;3.99;100.00
51928;BME280;37953;52.806;18.270;2022-12-07T11:39:51;99635.16;;;3.99;100.00
51928;BME280;37953;52.806;18.270;2022-12-07T11:42:46;99629.19;;;4.01;100.00
51928;BME280;37953;52.806;18.270;2022-12-07T11:50:48;99621.47;;;3.98;100.00
51928;BME280;37953;52.806;18.270;2022-12-07T11:53:45;99617.19;;;3.99;100.00
51928;BME280;37953;52.806;18.270;2022-12-07T11:56:17;99621.38;;;3.95;100.00
51928;BME280;37953;52.806;18.270;2022-12-07T11:59:35;99615.44;;;3.98;100.00
51928;BME280;37953;52.806;18.270;2022-12-07T12:02:15;99605.13;;;3.95;100.00
51928;BME280;37953;52.806;18.270;2022-12-07T12:05:02;99619.69;;;3.94;100.00
51928;BME280;37953;52.806;18.270;2022-12-07T12:07:57;99605.94;;;3.92;100.00
51928;BME280;37953;52.806;18.270;2022-12-07T12:10:38;99603.34;;;3.91;100.00
51928;BME280;37953;52.806;18.270;2022-12-07T12:13:22;99603.31;;;3.89;100.00
51928;BME280;37953;52.806;18.270;2022-12-07T12:16:15;99602.44;;;3.88;100.00
51928;BME280;37953;52.806;18.270;2022-12-07T12:22:01;99600.75;;;3.87;100.00
51928;BME280;37953;52.806;18.270;2022-12-07T12:24:32;99593.81;;;3.85;100.00
51928;BME280;37953;52.806;18.270;2022-12-07T12:27:06;99601.53;;;3.83;100.00
51928;BME280;37953;52.806;18.270;2022-12-07T12:29:35;99598.06;;;3.81;100.00
51928;BME280;37953;52.806;18.270;2022-12-07T12:35:17;99592.91;;;3.80;100.00
51928;BME280;37953;52.806;18.270;2022-12-07T12:37:49;99594.56;;;3.78;100.00
51928;BME280;37953;52.806;18.270;2022-12-07T12:42:54;99585.13;;;3.75;100.00
51928;BME280;37953;52.806;18.270;2022-12-07T12:45:26;99583.38;;;3.73;100.00
51928;BME280;37953;52.806;18.270;2022-12-07T12:47:55;99575.66;;;3.73;100.00
51928;BME280;37953;52.806;18.270;2022-12-07T12:50:37;99577.41;;;3.75;100.00
51928;BME280;37953;52.806;18.270;2022-12-07T12:53:23;99573.13;;;3.76;100.00
51928;BME280;37953;52.806;18.270;2022-12-07T12:56:19;99568.81;;;3.73;100.00
51928;BME280;37953;52.806;18.270;2022-12-07T12:58:48;99573.94;;;3.72;100.00
51928;BME280;37953;52.806;18.270;2022-12-07T13:01:40;99567.09;;;3.74;100.00
51928;BME280;37953;52.806;18.270;2022-12-07T13:04:38;99563.69;;;3.73;100.00
51928;BME280;37953;52.806;18.270;2022-12-07T13:07:10;99555.91;;;3.69;100.00
51928;BME280;37953;52.806;18.270;2022-12-07T13:09:42;99561.03;;;3.69;100.00
51928;BME280;37953;52.806;18.270;2022-12-07T13:12:14;99561.00;;;3.67;100.00
51928;BME280;37953;52.806;18.270;2022-12-07T13:14:56;99558.47;;;3.69;100.00
51928;BME280;37953;52.806;18.270;2022-12-07T13:20:02;99555.03;;;3.66;100.00
51928;BME280;37953;52.806;18.270;2022-12-07T13:25:03;99549.88;;;3.66;100.00
51928;BME280;37953;52.806;18.270;2022-12-07T13:28:02;99548.19;;;3.70;100.00
51928;BME280;37953;52.806;18.270;2022-12-07T13:30:57;99558.47;;;3.70;100.00
51928;BME280;37953;52.806;18.270;2022-12-07T13:33:38;99556.75;;;3.69;100.00
51928;BME280;37953;52.806;18.270;2022-12-07T13:36:22;99554.22;;;3.71;100.00
51928;BME280;37953;52.806;18.270;2022-12-07T13:38:57;99557.69;;;3.73;100.00
51928;BME280;37953;52.806;18.270;2022-12-07T13:41:29;99549.91;;;3.70;100.00
51928;BME280;37953;52.806;18.270;2022-12-07T13:44:17;99561.06;;;3.72;100.00
51928;BME280;37953;52.806;18.270;2022-12-07T13:49:24;99554.19;;;3.69;100.00
51928;BME280;37953;52.806;18.270;2022-12-07T13:51:51;99554.19;;;3.69;100.00
51928;BME280;37953;52.806;18.270;2022-12-07T13:54:19;99555.91;;;3.69;100.00
51928;BME280;37953;52.806;18.270;2022-12-07T13:56:52;99550.75;;;3.67;100.00
51928;BME280;37953;52.806;18.270;2022-12-07T13:59:23;99557.63;;;3.70;100.00
51928;BME280;37953;52.806;18.270;2022-12-07T14:01:57;99559.38;;;3.71;100.00
51928;BME280;37953;52.806;18.270;2022-12-07T14:04:30;99562.75;;;3.70;100.00
51928;BME280;37953;52.806;18.270;2022-12-07T14:06:57;99570.47;;;3.70;100.00
51928;BME280;37953;52.806;18.270;2022-12-07T14:09:30;99568.75;;;3.70;100.00
51928;BME280;37953;52.806;18.270;2022-12-07T14:11:57;99571.31;;;3.70;100.00
51928;BME280;37953;52.806;18.270;2022-12-07T14:14:29;99568.75;;;3.70;100.00
51928;BME280;37953;52.806;18.270;2022-12-07T14:17:16;99566.22;;;3.72;100.00
51928;BME280;37953;52.806;18.270;2022-12-07T14:19:51;99567.91;;;3.70;100.00
51928;BME280;37953;52.806;18.270;2022-12-07T14:22:38;99565.31;;;3.70;100.00
51928;BME280;37953;52.806;18.270;2022-12-07T14:25:24;99559.38;;;3.71;100.00
51928;BME280;37953;52.806;18.270;2022-12-07T14:30:23;99564.47;;;3.69;100.00
51928;BME280;37953;52.806;18.270;2022-12-07T14:32:53;99560.19;;;3.70;100.00
51928;BME280;37953;52.806;18.270;2022-12-07T14:35:23;99569.63;;;3.71;100.00
51928;BME280;37953;52.806;18.270;2022-12-07T14:37:49;99570.47;;;3.70;100.00
51928;BME280;37953;52.806;18.270;2022-12-07T14:40:22;99572.22;;;3.71;100.00
51928;BME280;37953;52.806;18.270;2022-12-07T14:43:05;99565.34;;;3.71;100.00
51928;BME280;37953;52.806;18.270;2022-12-07T14:45:50;99567.91;;;3.70;100.00
51928;BME280;37953;52.806;18.270;2022-12-07T14:50:52;99579.88;;;3.69;100.00
51928;BME280;37953;52.806;18.270;2022-12-07T14:53:23;99573.88;;;3.69;100.00
51928;BME280;37953;52.806;18.270;2022-12-07T14:55:51;99577.31;;;3.69;100.00
51928;BME280;37953;52.806;18.270;2022-12-07T14:58:18;99573.88;;;3.69;100.00
51928;BME280;37953;52.806;18.270;2022-12-07T15:00:44;99568.72;;;3.67;100.00
51928;BME280;37953;52.806;18.270;2022-12-07T15:03:11;99577.25;;;3.66;100.00
51928;BME280;37953;52.806;18.270;2022-12-07T15:05:39;99569.53;;;3.66;100.00
51928;BME280;37953;52.806;18.270;2022-12-07T15:08:05;99567.81;;;3.65;100.00
51928;BME280;37953;52.806;18.270;2022-12-07T15:10:33;99572.09;;;3.64;100.00
51928;BME280;37953;52.806;18.270;2022-12-07T15:13:02;99577.25;;;3.64;100.00
51928;BME280;37953;52.806;18.270;2022-12-07T15:15:48;99579.81;;;3.64;100.00
51928;BME280;37953;52.806;18.270;2022-12-07T15:18:14;99582.34;;;3.63;100.00
51928;BME280;37953;52.806;18.270;2022-12-07T15:20:40;99569.47;;;3.61;100.00
51928;BME280;37953;52.806;18.270;2022-12-07T15:23:07;99575.47;;;3.60;100.00
51928;BME280;37953;52.806;18.270;2022-12-07T15:25:33;99579.72;;;3.58;100.00
51928;BME280;37953;52.806;18.270;2022-12-07T15:27:59;99575.44;;;3.59;100.00